sensor_id;sensor_type;location;lat;lon;timestamp;P1;durP1;ratioP1;P2;durP2;ratioP2
44706;SDS011;30433;45.596;8.408;2024-03-07T00:04:16;4.00;;;2.00;;
44706;SDS011;30433;45.596;8.408;2024-03-07T00:10:37;3.60;;;2.20;;
44706;SDS011;30433;45.596;8.408;2024-03-07T00:16:39;3.25;;;1.90;;
44706;SDS011;30433;45.596;8.408;2024-03-07T00:36:27;2.83;;;1.60;;
44706;SDS011;30433;45.596;8.408;2024-03-07T06:52:37;1.60;;;0.80;;
44706;SDS011;30433;45.596;8.408;2024-03-07T06:58:39;1.17;;;0.60;;
44706;SDS011;30433;45.596;8.408;2024-03-07T07:04:42;2.55;;;0.80;;
44706;SDS011;30433;45.596;8.408;2024-03-07T07:10:50;1.58;;;0.73;;
44706;SDS011;30433;45.596;8.408;2024-03-07T07:16:54;2.05;;;1.00;;
44706;SDS011;30433;45.596;8.408;2024-03-07T07:22:56;1.30;;;0.70;;
44706;SDS011;30433;45.596;8.408;2024-03-07T07:29:02;2.05;;;0.85;;
44706;SDS011;30433;45.596;8.408;2024-03-07T07:35:07;2.92;;;0.68;;
44706;SDS011;30433;45.596;8.408;2024-03-07T07:41:11;1.33;;;0.80;;
44706;SDS011;30433;45.596;8.408;2024-03-07T07:47:15;2.35;;;0.77;;
44706;SDS011;30433;45.596;8.408;2024-03-07T07:53:18;1.98;;;1.20;;
44706;SDS011;30433;45.596;8.408;2024-03-07T07:59:20;2.75;;;1.10;;
44706;SDS011;30433;45.596;8.408;2024-03-07T08:05:24;1.55;;;0.93;;
44706;SDS011;30433;45.596;8.408;2024-03-07T08:11:27;2.22;;;1.17;;
44706;SDS011;30433;45.596;8.408;2024-03-07T08:17:29;2.40;;;1.42;;
44706;SDS011;30433;45.596;8.408;2024-03-07T08:23:33;2.88;;;1.30;;
44706;SDS011;30433;45.596;8.408;2024-03-07T08:35:37;2.15;;;1.25;;
44706;SDS011;30433;45.596;8.408;2024-03-07T08:41:41;1.43;;;0.90;;
44706;SDS011;30433;45.596;8.408;2024-03-07T08:47:47;2.20;;;1.27;;
44706;SDS011;30433;45.596;8.408;2024-03-07T08:53:50;3.15;;;1.20;;
44706;SDS011;30433;45.596;8.408;2024-03-07T08:59:54;2.63;;;0.90;;
44706;SDS011;30433;45.596;8.408;2024-03-07T09:05:56;1.83;;;0.73;;
44706;SDS011;30433;45.596;8.408;2024-03-07T09:11:58;2.72;;;1.00;;
44706;SDS011;30433;45.596;8.408;2024-03-07T09:18:03;2.05;;;0.73;;
44706;SDS011;30433;45.596;8.408;2024-03-07T09:24:06;1.92;;;1.10;;
44706;SDS011;30433;45.596;8.408;2024-03-07T09:30:08;1.35;;;0.70;;
44706;SDS011;30433;45.596;8.408;2024-03-07T09:36:16;2.00;;;0.70;;
44706;SDS011;30433;45.596;8.408;2024-03-07T09:42:19;3.47;;;0.70;;
44706;SDS011;30433;45.596;8.408;2024-03-07T09:54:29;1.35;;;0.82;;
44706;SDS011;30433;45.596;8.408;2024-03-07T10:00:31;2.88;;;0.98;;
44706;SDS011;30433;45.596;8.408;2024-03-07T10:06:35;3.00;;;1.10;;
44706;SDS011;30433;45.596;8.408;2024-03-07T10:12:38;4.75;;;1.27;;
44706;SDS011;30433;45.596;8.408;2024-03-07T10:18:41;2.22;;;1.20;;
44706;SDS011;30433;45.596;8.408;2024-03-07T10:30:52;2.30;;;1.27;;
44706;SDS011;30433;45.596;8.408;2024-03-07T10:36:54;2.50;;;1.40;;
44706;SDS011;30433;45.596;8.408;2024-03-07T10:42:57;2.38;;;1.27;;
44706;SDS011;30433;45.596;8.408;2024-03-07T10:49:04;1.80;;;1.30;;
44706;SDS011;30433;45.596;8.408;2024-03-07T10:55:15;2.97;;;1.40;;
44706;SDS011;30433;45.596;8.408;2024-03-07T11:01:25;1.73;;;1.10;;
44706;SDS011;30433;45.596;8.408;2024-03-07T11:07:33;1.77;;;1.25;;
44706;SDS011;30433;45.596;8.408;2024-03-07T11:13:36;2.15;;;1.40;;
44706;SDS011;30433;45.596;8.408;2024-03-07T11:19:38;2.83;;;1.40;;
44706;SDS011;30433;45.596;8.408;2024-03-07T11:25:43;3.03;;;1.55;;
44706;SDS011;30433;45.596;8.408;2024-03-07T11:31:45;1.88;;;1.23;;
44706;SDS011;30433;45.596;8.408;2024-03-07T11:37:47;1.80;;;1.20;;
44706;SDS011;30433;45.596;8.408;2024-03-07T11:43:53;4.30;;;2.10;;
44706;SDS011;30433;45.596;8.408;2024-03-07T11:49:56;3.35;;;1.67;;
44706;SDS011;30433;45.596;8.408;2024-03-07T11:55:59;3.17;;;2.47;;
44706;SDS011;30433;45.596;8.408;2024-03-07T12:02:11;3.55;;;2.40;;
44706;SDS011;30433;45.596;8.408;2024-03-07T12:08:15;4.65;;;3.58;;
44706;SDS011;30433;45.596;8.408;2024-03-07T12:14:17;5.13;;;3.20;;
44706;SDS011;30433;45.596;8.408;2024-03-07T12:20:21;7.17;;;3.50;;
44706;SDS011;30433;45.596;8.408;2024-03-07T12:26:28;4.45;;;2.90;;
44706;SDS011;30433;45.596;8.408;2024-03-07T12:32:30;4.75;;;3.50;;
44706;SDS011;30433;45.596;8.408;2024-03-07T12:38:33;5.85;;;3.40;;
44706;SDS011;30433;45.596;8.408;2024-03-07T12:44:39;6.53;;;3.42;;
44706;SDS011;30433;45.596;8.408;2024-03-07T12:50:45;6.13;;;3.30;;
44706;SDS011;30433;45.596;8.408;2024-03-07T12:56:52;3.63;;;2.95;;
44706;SDS011;30433;45.596;8.408;2024-03-07T13:02:54;3.95;;;2.47;;
44706;SDS011;30433;45.596;8.408;2024-03-07T13:08:57;5.55;;;2.50;;
44706;SDS011;30433;45.596;8.408;2024-03-07T13:15:01;2.95;;;2.58;;
44706;SDS011;30433;45.596;8.408;2024-03-07T13:21:06;4.78;;;2.90;;
44706;SDS011;30433;45.596;8.408;2024-03-07T13:27:10;4.55;;;3.17;;
44706;SDS011;30433;45.596;8.408;2024-03-07T13:33:20;3.60;;;2.60;;
44706;SDS011;30433;45.596;8.408;2024-03-07T13:39:24;6.07;;;3.45;;
44706;SDS011;30433;45.596;8.408;2024-03-07T13:45:27;3.80;;;2.78;;
44706;SDS011;30433;45.596;8.408;2024-03-07T13:51:32;3.40;;;2.35;;
44706;SDS011;30433;45.596;8.408;2024-03-07T13:57:39;3.08;;;2.05;;
44706;SDS011;30433;45.596;8.408;2024-03-07T14:10:40;4.25;;;2.40;;
44706;SDS011;30433;45.596;8.408;2024-03-07T14:17:27;4.32;;;2.15;;
44706;SDS011;30433;45.596;8.408;2024-03-07T14:24:10;3.65;;;2.10;;
44706;SDS011;30433;45.596;8.408;2024-03-07T14:30:38;3.13;;;2.00;;
44706;SDS011;30433;45.596;8.408;2024-03-07T14:36:45;4.20;;;2.30;;
44706;SDS011;30433;45.596;8.408;2024-03-07T14:42:53;8.43;;;4.55;;
44706;SDS011;30433;45.596;8.408;2024-03-07T14:48:58;3.35;;;2.20;;
44706;SDS011;30433;45.596;8.408;2024-03-07T14:55:01;4.68;;;2.63;;
44706;SDS011;30433;45.596;8.408;2024-03-07T15:01:04;3.65;;;2.35;;
44706;SDS011;30433;45.596;8.408;2024-03-07T15:07:07;3.43;;;2.40;;
44706;SDS011;30433;45.596;8.408;2024-03-07T15:13:10;5.35;;;2.25;;
44706;SDS011;30433;45.596;8.408;2024-03-07T15:25:17;3.75;;;2.80;;
44706;SDS011;30433;45.596;8.408;2024-03-07T15:31:19;2.70;;;2.30;;
44706;SDS011;30433;45.596;8.408;2024-03-07T15:37:21;4.70;;;2.55;;
44706;SDS011;30433;45.596;8.408;2024-03-07T15:43:25;5.82;;;2.15;;
44706;SDS011;30433;45.596;8.408;2024-03-07T15:49:28;4.00;;;2.10;;
44706;SDS011;30433;45.596;8.408;2024-03-07T15:55:30;5.40;;;3.00;;
44706;SDS011;30433;45.596;8.408;2024-03-07T16:01:34;3.15;;;2.63;;
44706;SDS011;30433;45.596;8.408;2024-03-07T16:07:37;3.55;;;2.38;;
44706;SDS011;30433;45.596;8.408;2024-03-07T16:13:41;5.88;;;2.47;;
44706;SDS011;30433;45.596;8.408;2024-03-07T16:19:46;4.75;;;2.47;;
44706;SDS011;30433;45.596;8.408;2024-03-07T17:00:37;4.13;;;2.20;;
44706;SDS011;30433;45.596;8.408;2024-03-07T17:06:40;3.05;;;1.70;;
44706;SDS011;30433;45.596;8.408;2024-03-07T17:12:42;3.13;;;1.83;;
44706;SDS011;30433;45.596;8.408;2024-03-07T17:18:46;3.20;;;1.80;;
44706;SDS011;30433;45.596;8.408;2024-03-07T17:24:49;4.30;;;1.75;;
44706;SDS011;30433;45.596;8.408;2024-03-07T17:30:53;5.70;;;2.35;;
44706;SDS011;30433;45.596;8.408;2024-03-07T17:36:57;6.40;;;1.90;;
44706;SDS011;30433;45.596;8.408;2024-03-07T17:43:00;4.05;;;2.40;;
44706;SDS011;30433;45.596;8.408;2024-03-07T17:49:04;3.55;;;1.98;;
44706;SDS011;30433;45.596;8.408;2024-03-07T17:55:07;5.73;;;3.30;;
44706;SDS011;30433;45.596;8.408;2024-03-07T18:01:14;5.07;;;2.78;;
44706;SDS011;30433;45.596;8.408;2024-03-07T18:07:17;5.97;;;3.67;;
44706;SDS011;30433;45.596;8.408;2024-03-07T18:13:23;3.25;;;2.45;;
44706;SDS011;30433;45.596;8.408;2024-03-07T18:19:25;5.85;;;3.30;;
44706;SDS011;30433;45.596;8.408;2024-03-07T18:25:27;6.25;;;3.00;;
44706;SDS011;30433;45.596;8.408;2024-03-07T18:31:31;19.33;;;15.35;;
44706;SDS011;30433;45.596;8.408;2024-03-07T18:37:33;12.75;;;7.10;;
44706;SDS011;30433;45.596;8.408;2024-03-07T18:43:36;17.55;;;5.50;;
44706;SDS011;30433;45.596;8.408;2024-03-07T18:49:42;20.73;;;8.60;;
44706;SDS011;30433;45.596;8.408;2024-03-07T18:55:48;22.27;;;7.95;;
44706;SDS011;30433;45.596;8.408;2024-03-07T19:01:51;15.18;;;6.90;;
44706;SDS011;30433;45.596;8.408;2024-03-07T19:07:55;10.97;;;6.43;;
44706;SDS011;30433;45.596;8.408;2024-03-07T19:13:58;7.15;;;4.05;;
44706;SDS011;30433;45.596;8.408;2024-03-07T19:20:01;4.30;;;3.50;;
44706;SDS011;30433;45.596;8.408;2024-03-07T19:26:18;4.70;;;3.20;;
44706;SDS011;30433;45.596;8.408;2024-03-07T19:32:20;5.85;;;3.97;;
44706;SDS011;30433;45.596;8.408;2024-03-07T19:38:22;6.68;;;4.70;;
44706;SDS011;30433;45.596;8.408;2024-03-07T19:44:26;6.45;;;4.60;;
44706;SDS011;30433;45.596;8.408;2024-03-07T19:50:31;6.80;;;4.57;;
44706;SDS011;30433;45.596;8.408;2024-03-07T19:56:36;7.20;;;4.90;;
44706;SDS011;30433;45.596;8.408;2024-03-07T20:02:40;7.00;;;4.50;;
44706;SDS011;30433;45.596;8.408;2024-03-07T20:08:42;7.50;;;5.28;;
44706;SDS011;30433;45.596;8.408;2024-03-07T20:14:47;7.47;;;4.50;;
44706;SDS011;30433;45.596;8.408;2024-03-07T20:20:51;7.82;;;4.50;;
44706;SDS011;30433;45.596;8.408;2024-03-07T20:26:54;6.10;;;4.72;;
44706;SDS011;30433;45.596;8.408;2024-03-07T20:32:57;8.95;;;5.35;;
44706;SDS011;30433;45.596;8.408;2024-03-07T20:39:01;7.30;;;4.18;;
44706;SDS011;30433;45.596;8.408;2024-03-07T20:45:09;7.72;;;5.05;;
44706;SDS011;30433;45.596;8.408;2024-03-07T20:51:12;5.50;;;3.92;;
44706;SDS011;30433;45.596;8.408;2024-03-07T20:57:16;7.07;;;5.00;;
44706;SDS011;30433;45.596;8.408;2024-03-07T21:03:19;5.90;;;4.30;;
44706;SDS011;30433;45.596;8.408;2024-03-07T21:09:23;8.95;;;5.53;;
44706;SDS011;30433;45.596;8.408;2024-03-07T21:15:31;9.13;;;5.07;;
44706;SDS011;30433;45.596;8.408;2024-03-07T21:21:33;8.70;;;5.20;;
44706;SDS011;30433;45.596;8.408;2024-03-07T21:27:36;10.57;;;6.07;;
44706;SDS011;30433;45.596;8.408;2024-03-07T21:33:39;7.28;;;5.05;;
44706;SDS011;30433;45.596;8.408;2024-03-07T21:39:42;11.10;;;6.40;;
44706;SDS011;30433;45.596;8.408;2024-03-07T21:45:45;15.18;;;8.13;;
44706;SDS011;30433;45.596;8.408;2024-03-07T21:51:49;9.50;;;5.72;;
44706;SDS011;30433;45.596;8.408;2024-03-07T21:57:51;7.30;;;5.50;;
44706;SDS011;30433;45.596;8.408;2024-03-07T22:03:54;14.95;;;8.45;;
44706;SDS011;30433;45.596;8.408;2024-03-07T22:09:59;8.30;;;5.68;;
44706;SDS011;30433;45.596;8.408;2024-03-07T22:16:05;6.88;;;4.72;;
44706;SDS011;30433;45.596;8.408;2024-03-07T22:22:10;6.95;;;4.43;;
44706;SDS011;30433;45.596;8.408;2024-03-07T22:28:13;5.68;;;4.28;;
44706;SDS011;30433;45.596;8.408;2024-03-07T22:34:16;10.20;;;5.43;;
44706;SDS011;30433;45.596;8.408;2024-03-07T22:40:19;8.52;;;5.13;;
44706;SDS011;30433;45.596;8.408;2024-03-07T22:46:24;7.75;;;5.05;;
44706;SDS011;30433;45.596;8.408;2024-03-07T22:52:26;7.70;;;5.32;;
44706;SDS011;30433;45.596;8.408;2024-03-07T22:58:29;10.18;;;5.32;;
44706;SDS011;30433;45.596;8.408;2024-03-07T23:04:33;7.57;;;4.95;;
44706;SDS011;30433;45.596;8.408;2024-03-07T23:10:35;6.75;;;4.60;;
44706;SDS011;30433;45.596;8.408;2024-03-07T23:16:38;11.02;;;6.97;;
44706;SDS011;30433;45.596;8.408;2024-03-07T23:22:42;9.17;;;5.13;;
44706;SDS011;30433;45.596;8.408;2024-03-07T23:28:44;5.88;;;4.53;;
44706;SDS011;30433;45.596;8.408;2024-03-07T23:34:49;7.43;;;4.72;;
44706;SDS011;30433;45.596;8.408;2024-03-07T23:40:53;6.88;;;4.45;;
44706;SDS011;30433;45.596;8.408;2024-03-07T23:46:55;7.70;;;4.60;;
44706;SDS011;30433;45.596;8.408;2024-03-07T23:52:57;8.65;;;5.68;;
44706;SDS011;30433;45.596;8.408;2024-03-07T23:59:01;10.98;;;6.00;;
